Time;durP1;ratioP1;P1;durP2;ratioP2;P2;SDS_P1;SDS_P2;PMS_P1;PMS_P2;Temp;Humidity;BMP_temperature;BMP_pressure;BME280_temperature;BME280_humidity;BME280_pressure;Samples;Min_cycle;Max_cycle;Signal;HPM_P1;HPM_P2
2022/04/23 00:00:04;;;;;;;335.27;128.98;;;;;;;13.00;71.66;98647.38;343227;28;1516;-76
2022/04/23 00:00:15;;;;;;;334.52;128.90;;;;;;;13.00;71.43;98651.78;341074;28;1514;-77
2022/04/23 00:00:25;;;;;;;335.13;129.83;;;;;;;12.97;71.83;98652.03;341032;28;2974;-76
2022/04/23 00:00:35;;;;;;;334.55;131.15;;;;;;;12.98;71.62;98651.09;337729;28;3207;-76
2022/04/23 00:00:46;;;;;;;339.03;132.73;;;;;;;12.99;71.71;98650.97;339611;29;1236;-76
2022/04/23 00:00:56;;;;;;;336.67;129.85;;;;;;;13.02;71.63;98644.66;339568;28;1201;-76
2022/04/23 00:01:07;;;;;;;338.53;131.23;;;;;;;13.01;71.72;98648.22;338565;29;1927;-76
2022/04/23 00:01:17;;;;;;;333.37;130.60;;;;;;;13.03;71.49;98654.22;338345;28;1300;-76
2022/04/23 00:01:27;;;;;;;335.27;133.93;;;;;;;13.04;71.69;98641.94;339605;28;1067;-76
2022/04/23 00:01:39;;;;;;;331.77;132.47;;;;;;;13.04;71.68;98652.44;340116;28;826;-76
2022/04/23 00:01:50;;;;;;;333.52;132.55;;;;;;;13.01;71.69;98648.22;341006;28;909;-76
2022/04/23 00:02:02;;;;;;;331.37;130.63;;;;;;;12.99;71.83;98650.97;338574;29;841;-76
2022/04/23 00:02:12;;;;;;;330.00;128.50;;;;;;;12.98;71.97;98649.31;339430;28;1308;-76
2022/04/23 00:02:23;;;;;;;331.02;128.25;;;;;;;13.01;71.80;98650.84;338449;29;1174;-76
2022/04/23 00:02:33;;;;;;;334.17;129.73;;;;;;;13.00;71.73;98647.38;341196;28;1311;-77
2022/04/23 00:02:44;;;;;;;336.33;130.55;;;;;;;13.02;71.89;98652.53;340965;28;1205;-76
2022/04/23 00:02:54;;;;;;;335.23;131.40;;;;;;;13.02;71.62;98652.53;339764;29;1260;-76
2022/04/23 00:03:05;;;;;;;334.10;131.33;;;;;;;13.01;71.80;98642.97;339160;28;1217;-76
2022/04/23 00:03:16;;;;;;;331.95;129.00;;;;;;;12.99;71.57;98648.34;340904;28;1375;-76
2022/04/23 00:03:26;;;;;;;331.17;128.43;;;;;;;12.98;71.82;98649.31;342490;28;912;-76
2022/04/23 00:03:37;;;;;;;330.33;129.27;;;;;;;12.95;71.96;98646.88;342393;28;798;-76
2022/04/23 00:03:47;;;;;;;333.47;131.40;;;;;;;12.95;71.70;98644.25;341042;28;1225;-76
2022/04/23 00:03:58;;;;;;;335.30;131.38;;;;;;;12.94;71.80;98655.69;339773;29;830;-76
2022/04/23 00:04:09;;;;;;;336.90;130.70;;;;;;;12.93;71.70;98653.16;342713;28;799;-76
2022/04/23 00:04:19;;;;;;;336.58;130.23;;;;;;;12.91;72.07;98641.94;341651;28;1551;-75
2022/04/23 00:04:30;;;;;;;335.03;129.67;;;;;;;12.92;71.97;98647.06;343984;28;1331;-76
2022/04/23 00:04:40;;;;;;;331.15;129.05;;;;;;;12.90;72.50;98648.97;341006;28;1227;-76
2022/04/23 00:04:51;;;;;;;329.87;128.90;;;;;;;12.90;72.19;98651.59;341419;28;829;-76
2022/04/23 00:05:01;;;;;;;331.40;128.60;;;;;;;12.92;72.36;98644.44;341317;28;916;-76
2022/04/23 00:05:12;;;;;;;331.63;129.43;;;;;;;12.92;72.13;98648.88;341465;28;834;-76
2022/04/23 00:05:22;;;;;;;330.55;129.23;;;;;;;12.90;72.65;98646.34;342302;28;947;-76
2022/04/23 00:05:33;;;;;;;330.23;128.83;;;;;;;12.91;72.40;98649.81;341183;28;993;-76
2022/04/23 00:05:43;;;;;;;332.75;129.52;;;;;;;12.89;72.67;98646.44;340363;28;1398;-76
2022/04/23 00:05:53;;;;;;;332.13;130.13;;;;;;;12.88;72.51;98648.22;341686;28;1419;-76
2022/04/23 00:06:05;;;;;;;331.48;129.13;;;;;;;12.89;72.74;98649.06;340203;28;834;-76
2022/04/23 00:06:15;;;;;;;332.48;129.77;;;;;;;12.88;72.82;98647.38;335907;29;851;-76
2022/04/23 00:06:25;;;;;;;332.77;130.07;;;;;;;12.81;72.48;98646.94;341646;28;1503;-76
2022/04/23 00:06:36;;;;;;;332.88;130.57;;;;;;;12.80;72.59;98650.50;342631;28;779;-76
2022/04/23 00:06:48;;;;;;;332.23;130.83;;;;;;;12.80;72.55;98647.88;340931;28;1117;-76
2022/04/23 00:06:58;;;;;;;332.05;129.40;;;;;;;12.78;72.44;98649.75;342513;28;925;-76
2022/04/23 00:07:08;;;;;;;330.83;127.43;;;;;;;12.78;72.61;98647.13;342374;28;1334;-76
2022/04/23 00:07:19;;;;;;;331.57;126.67;;;;;;;12.79;72.54;98648.81;341230;28;780;-76
2022/04/23 00:07:29;;;;;;;334.93;129.47;;;;;;;12.80;72.44;98647.88;341078;28;1392;-76
2022/04/23 00:07:40;;;;;;;337.02;131.73;;;;;;;12.82;72.31;98658.28;339899;29;994;-76
2022/04/23 00:07:50;;;;;;;337.33;132.73;;;;;;;12.83;72.41;98652.94;342501;28;1220;-76
2022/04/23 00:08:00;;;;;;;336.85;132.65;;;;;;;12.82;72.05;98653.88;343786;28;1075;-76
2022/04/23 00:08:11;;;;;;;335.30;130.37;;;;;;;12.84;72.45;98654.63;341236;28;881;-76
2022/04/23 00:08:21;;;;;;;332.92;128.90;;;;;;;12.86;72.06;98651.88;341171;28;1212;-76
2022/04/23 00:08:32;;;;;;;331.60;128.40;;;;;;;12.86;72.14;98657.13;339738;28;1250;-76
2022/04/23 00:08:42;;;;;;;334.27;132.53;;;;;;;12.86;72.07;98652.72;340002;28;5016;-76
2022/04/23 00:08:52;;;;;;;337.77;136.38;;;;;;;12.86;72.07;98655.34;343165;28;4920;-76
2022/04/23 00:09:03;;;;;;;341.80;137.70;;;;;;;12.86;72.15;98649.25;340829;28;1403;-76
2022/04/23 00:09:13;;;;;;;340.38;135.27;;;;;;;12.85;72.20;98648.41;343197;28;1577;-76
2022/04/23 00:09:24;;;;;;;337.45;132.00;;;;;;;12.84;72.19;98657.25;342114;28;1213;-76
2022/04/23 00:09:35;;;;;;;333.00;130.07;;;;;;;12.83;72.21;98654.72;340003;28;1914;-76
2022/04/23 00:09:45;;;;;;;335.05;131.00;;;;;;;12.85;72.17;98656.28;338853;28;4035;-76
2022/04/23 00:09:55;;;;;;;334.10;130.87;;;;;;;12.83;72.13;98654.72;340740;28;3139;-76
2022/04/23 00:10:08;;;;;;;339.10;132.80;;;;;;;12.81;71.99;98657.44;340668;28;1608;-76
2022/04/23 00:10:18;;;;;;;335.33;129.30;;;;;;;12.80;72.01;98658.38;338541;29;2924;-76
2022/04/23 00:10:29;;;;;;;335.35;129.90;;;;;;;12.78;72.78;98656.78;341781;28;1263;-76
2022/04/23 00:10:39;;;;;;;331.60;129.53;;;;;;;12.79;72.08;98659.31;338290;28;1207;-76
2022/04/23 00:10:50;;;;;;;334.33;131.20;;;;;;;12.82;71.96;98658.28;339632;28;1647;-76
2022/04/23 00:11:00;;;;;;;336.23;131.70;;;;;;;12.80;72.10;98660.16;340757;28;880;-76
2022/04/23 00:11:10;;;;;;;337.93;132.40;;;;;;;12.80;72.01;98661.00;342019;28;1217;-76
2022/04/23 00:11:21;;;;;;;336.50;131.93;;;;;;;12.77;71.83;98650.69;341264;28;869;-76
2022/04/23 00:11:32;;;;;;;334.97;132.37;;;;;;;12.76;71.91;98649.00;339308;28;1523;-76
2022/04/23 00:11:43;;;;;;;335.48;132.38;;;;;;;12.77;72.10;98650.69;342208;28;1279;-75
2022/04/23 00:11:55;;;;;;;335.17;132.85;;;;;;;12.76;71.84;98649.00;342447;28;1378;-76
2022/04/23 00:12:06;;;;;;;334.65;131.13;;;;;;;12.80;71.91;98654.91;341204;28;1687;-76
2022/04/23 00:12:16;;;;;;;332.92;129.95;;;;;;;12.77;71.96;98648.06;339860;28;1224;-77
2022/04/23 00:12:27;;;;;;;333.67;131.43;;;;;;;12.78;72.04;98652.38;341456;28;962;-77
2022/04/23 00:12:37;;;;;;;333.27;131.27;;;;;;;12.77;72.04;98653.31;340971;28;1041;-76
2022/04/23 00:12:48;;;;;;;334.33;131.13;;;;;;;12.78;72.26;98652.38;342473;28;743;-76
2022/04/23 00:12:59;;;;;;;334.45;129.30;;;;;;;12.77;72.09;98648.06;341115;28;924;-76
2022/04/23 00:13:09;;;;;;;335.20;129.65;;;;;;;12.78;72.12;98651.53;342661;28;1277;-77
2022/04/23 00:13:20;;;;;;;337.77;131.03;;;;;;;12.75;71.99;98647.34;343906;28;856;-76
2022/04/23 00:13:30;;;;;;;334.83;129.63;;;;;;;12.76;72.15;98651.66;342528;28;1468;-76
2022/04/23 00:13:41;;;;;;;331.08;127.60;;;;;;;12.73;71.90;98638.72;340987;28;1310;-76
2022/04/23 00:13:51;;;;;;;327.37;126.80;;;;;;;12.72;71.88;98646.69;342801;28;1434;-76
2022/04/23 00:14:04;;;;;;;331.40;128.80;;;;;;;12.70;71.95;98653.81;343574;28;1336;-76
2022/04/23 00:14:14;;;;;;;335.35;129.32;;;;;;;12.67;72.19;98649.59;342293;28;1582;-76
2022/04/23 00:14:25;;;;;;;333.57;129.07;;;;;;;12.68;72.22;98651.28;341662;28;1276;-76
2022/04/23 00:14:35;;;;;;;331.63;128.32;;;;;;;12.66;72.07;98647.94;343675;28;1232;-76
2022/04/23 00:14:46;;;;;;;331.90;129.57;;;;;;;12.66;72.18;98646.13;341187;28;1340;-76
2022/04/23 00:14:56;;;;;;;334.00;129.20;;;;;;;12.67;72.31;98649.59;340407;28;1231;-76
2022/04/23 00:15:07;;;;;;;334.67;129.23;;;;;;;12.64;72.09;98649.81;343581;28;1314;-76
2022/04/23 00:15:25;;;;;;;333.08;127.63;;;;;;;12.63;72.32;98646.34;342552;28;806;-76
2022/04/23 00:15:39;;;;;;;332.27;128.68;;;;;;;12.56;72.20;98642.41;341147;28;932;-76
2022/04/23 00:15:49;;;;;;;330.75;129.20;;;;;;;12.60;72.29;98648.31;342430;28;920;-76
2022/04/23 00:16:00;;;;;;;329.98;127.07;;;;;;;12.61;72.60;98650.00;342588;28;1370;-76
2022/04/23 00:16:14;;;;;;;331.40;128.98;;;;;;;12.61;72.58;98645.59;342524;28;873;-76
2022/04/23 00:16:24;;;;;;;332.70;130.70;;;;;;;12.62;72.53;98641.19;341078;28;1496;-76
2022/04/23 00:16:35;;;;;;;332.97;131.20;;;;;;;12.63;72.65;98646.34;341294;28;814;-76
2022/04/23 00:16:46;;;;;;;335.50;132.65;;;;;;;12.64;72.54;98639.31;342320;28;929;-76
2022/04/23 00:16:57;;;;;;;337.52;133.00;;;;;;;12.63;72.77;98642.88;343754;28;877;-76
2022/04/23 00:17:09;;;;;;;337.40;130.82;;;;;;;12.61;72.36;98650.00;342455;28;1266;-76
2022/04/23 00:17:19;;;;;;;337.33;130.10;;;;;;;12.60;72.85;98654.41;343713;28;1275;-76
2022/04/23 00:17:30;;;;;;;337.13;130.77;;;;;;;12.58;72.35;98642.31;342574;28;1344;-76
2022/04/23 00:17:40;;;;;;;335.17;131.50;;;;;;;12.58;72.78;98645.78;339596;28;1253;-76
2022/04/23 00:17:51;;;;;;;334.67;131.73;;;;;;;12.58;72.65;98639.69;343735;28;1718;-76
2022/04/23 00:18:01;;;;;;;334.10;130.20;;;;;;;12.54;72.80;98644.34;341726;28;4973;-76
2022/04/23 00:18:12;;;;;;;333.58;128.80;;;;;;;12.56;72.97;98644.25;339721;29;1526;-76
2022/04/23 00:18:22;;;;;;;335.70;130.73;;;;;;;12.53;73.11;98647.06;342078;28;1797;-75
2022/04/23 00:18:33;;;;;;;335.13;131.85;;;;;;;12.54;72.73;98648.75;342422;28;1810;-76
2022/04/23 00:18:44;;;;;;;333.57;129.37;;;;;;;12.51;72.73;98643.69;342338;28;1920;-76
2022/04/23 00:18:55;;;;;;;330.25;126.88;;;;;;;12.47;72.62;98642.19;342315;28;3432;-76
2022/04/23 00:19:05;;;;;;;330.20;126.63;;;;;;;12.48;72.45;98641.25;339757;28;3363;-76
2022/04/23 00:19:16;;;;;;;332.08;129.57;;;;;;;12.51;72.60;98641.06;339864;29;802;-76
2022/04/23 00:19:26;;;;;;;336.35;132.38;;;;;;;12.52;72.62;98640.97;340737;28;1671;-76
2022/04/23 00:19:37;;;;;;;336.43;131.63;;;;;;;12.52;72.44;98642.75;339383;28;3340;-76
2022/04/23 00:19:47;;;;;;;335.97;130.60;;;;;;;12.53;72.49;98644.44;341964;28;1103;-76
2022/04/23 00:19:58;;;;;;;333.25;129.27;;;;;;;12.53;72.56;98636.56;339752;29;894;-76
2022/04/23 00:20:08;;;;;;;333.42;128.80;;;;;;;12.56;72.58;98646.88;341282;28;971;-76
2022/04/23 00:20:19;;;;;;;332.87;128.53;;;;;;;12.56;72.46;98641.63;342327;28;1457;-76
2022/04/23 00:20:30;;;;;;;331.05;127.20;;;;;;;12.55;72.34;98640.78;345003;28;895;-76
2022/04/23 00:20:41;;;;;;;333.15;128.50;;;;;;;12.53;72.50;98636.56;342609;28;928;-76
2022/04/23 00:20:51;;;;;;;333.52;128.65;;;;;;;12.57;72.37;98638.00;341545;28;869;-76
2022/04/23 00:21:01;;;;;;;334.37;130.20;;;;;;;12.59;72.30;98644.00;341915;28;806;-76
2022/04/23 00:21:13;;;;;;;335.80;131.10;;;;;;;12.59;72.47;98644.00;338614;29;2009;-76
2022/04/23 00:21:24;;;;;;;337.95;134.32;;;;;;;12.58;72.47;98634.44;341191;28;1074;-76
2022/04/23 00:21:34;;;;;;;337.88;134.32;;;;;;;12.60;72.49;98637.81;341154;28;858;-76
2022/04/23 00:21:44;;;;;;;335.47;133.47;;;;;;;12.59;72.52;98639.59;342034;28;1310;-76
2022/04/23 00:21:55;;;;;;;333.70;129.40;;;;;;;12.59;72.38;98638.75;339895;29;834;-76
2022/04/23 00:22:05;;;;;;;336.50;128.50;;;;;;;12.63;72.50;98642.88;342186;28;1338;-75
2022/04/23 00:22:16;;;;;;;336.15;127.07;;;;;;;12.61;72.69;98640.34;342479;28;829;-76
2022/04/23 00:22:27;;;;;;;336.85;129.32;;;;;;;12.56;72.34;98633.75;342360;28;1334;-75
2022/04/23 00:22:38;;;;;;;333.15;129.73;;;;;;;12.54;72.76;98643.50;338353;29;1150;-75
2022/04/23 00:22:48;;;;;;;332.23;128.33;;;;;;;12.44;72.44;98637.16;340948;28;1189;-76
2022/04/23 00:22:59;;;;;;;332.13;127.18;;;;;;;12.36;72.76;98639.41;341002;28;1035;-76
2022/04/23 00:23:10;;;;;;;332.67;126.85;;;;;;;12.28;73.32;98643.38;345180;28;1337;-76
2022/04/23 00:23:21;;;;;;;335.83;127.60;;;;;;;12.19;73.48;98643.94;342554;28;979;-76
2022/04/23 00:23:33;;;;;;;332.35;126.30;;;;;;;12.15;73.52;98642.44;343491;28;1927;-76
2022/04/23 00:23:46;;;;;;;331.20;126.45;;;;;;;12.12;73.85;98637.44;341056;28;1116;-76
2022/04/23 00:23:56;;;;;;;332.60;126.40;;;;;;;12.07;74.03;98644.72;342576;28;861;-76
2022/04/23 00:24:07;;;;;;;332.30;126.77;;;;;;;12.12;74.32;98641.81;339877;28;1359;-76
2022/04/23 00:24:18;;;;;;;330.45;126.97;;;;;;;12.11;74.24;98645.38;342486;28;917;-76
2022/04/23 00:24:28;;;;;;;332.02;126.88;;;;;;;12.14;74.09;98645.16;343734;28;1281;-76
2022/04/23 00:24:38;;;;;;;334.50;127.10;;;;;;;12.18;73.82;98644.88;341118;28;1172;-76
2022/04/23 00:24:49;;;;;;;334.48;125.32;;;;;;;12.20;73.85;98645.63;343716;28;1299;-76
2022/04/23 00:25:00;;;;;;;332.70;125.13;;;;;;;12.25;73.82;98647.97;343821;28;833;-76
2022/04/23 00:25:10;;;;;;;332.33;125.10;;;;;;;12.26;73.74;98644.41;342645;28;1199;-76
2022/04/23 00:25:20;;;;;;;336.53;129.07;;;;;;;12.31;73.60;98658.06;342221;28;1438;-76
2022/04/23 00:25:31;;;;;;;334.23;128.30;;;;;;;12.34;73.28;98644.75;343733;28;1203;-76
2022/04/23 00:25:45;;;;;;;331.20;126.07;;;;;;;12.35;73.10;98648.22;338433;28;1356;-76
2022/04/23 00:25:55;;;;;;;330.50;124.22;;;;;;;12.37;72.93;98641.09;339701;28;1403;-76
2022/04/23 00:26:06;;;;;;;332.98;126.18;;;;;;;12.40;72.80;98646.16;341711;28;802;-76
2022/04/23 00:26:16;;;;;;;334.20;128.17;;;;;;;12.43;72.75;98649.44;341221;28;921;-76
2022/04/23 00:26:27;;;;;;;335.40;130.60;;;;;;;12.44;72.84;98650.28;338827;28;1024;-76
2022/04/23 00:26:37;;;;;;;335.57;132.53;;;;;;;12.45;72.75;98650.16;340167;28;1248;-76
2022/04/23 00:26:47;;;;;;;332.77;131.05;;;;;;;12.47;72.78;98652.69;339818;29;1126;-76
2022/04/23 00:26:58;;;;;;;332.50;130.83;;;;;;;12.48;72.75;98642.09;342264;28;1298;-76
2022/04/23 00:27:08;;;;;;;332.13;128.63;;;;;;;12.47;72.75;98650.06;340959;28;1253;-76
2022/04/23 00:27:19;;;;;;;333.37;128.60;;;;;;;12.45;72.71;98644.09;337862;28;3510;-76
2022/04/23 00:27:29;;;;;;;331.63;126.85;;;;;;;12.44;72.64;98648.50;340010;28;4874;-76
2022/04/23 00:27:39;;;;;;;334.27;128.50;;;;;;;12.46;72.76;98651.00;342989;28;1808;-76
2022/04/23 00:27:50;;;;;;;334.75;128.02;;;;;;;12.46;72.74;98645.75;341924;28;1478;-76
2022/04/23 00:28:00;;;;;;;336.67;129.23;;;;;;;12.46;72.83;98645.75;339358;28;1690;-76
2022/04/23 00:28:11;;;;;;;334.90;128.48;;;;;;;12.45;72.86;98646.69;337610;28;3633;-76
2022/04/23 00:28:21;;;;;;;333.97;130.37;;;;;;;12.47;72.92;98647.44;339707;28;4963;-76
2022/04/23 00:28:32;;;;;;;335.10;129.82;;;;;;;12.50;72.91;98653.34;340919;28;1582;-77
2022/04/23 00:28:42;;;;;;;338.53;129.33;;;;;;;12.51;72.37;98648.94;340831;28;1808;-76
2022/04/23 00:28:53;;;;;;;339.13;129.38;;;;;;;12.51;72.63;98654.19;338580;29;3042;-77
2022/04/23 00:29:04;;;;;;;335.75;127.35;;;;;;;12.52;72.65;98655.88;338492;29;830;-76
2022/04/23 00:29:14;;;;;;;333.83;129.43;;;;;;;12.49;72.68;98650.81;339728;29;1200;-76
2022/04/23 00:29:25;;;;;;;332.55;129.18;;;;;;;12.53;72.55;98652.31;340849;28;1325;-76
2022/04/23 00:29:35;;;;;;;333.93;130.63;;;;;;;12.50;72.70;98660.38;339600;28;1377;-76
2022/04/23 00:29:46;;;;;;;332.45;128.10;;;;;;;12.50;72.66;98652.50;342776;28;858;-76
2022/04/23 00:29:56;;;;;;;331.08;126.07;;;;;;;12.51;72.65;98654.19;343708;28;1356;-76
2022/04/23 00:30:07;;;;;;;329.60;124.33;;;;;;;12.51;72.95;98659.44;342297;28;920;-77
2022/04/23 00:30:18;;;;;;;332.60;125.35;;;;;;;12.53;72.87;98654.94;342339;28;1397;-77
2022/04/23 00:30:28;;;;;;;333.43;126.43;;;;;;;12.51;72.55;98646.31;345059;28;1326;-76
2022/04/23 00:30:38;;;;;;;332.48;126.82;;;;;;;12.51;72.69;98660.28;340957;28;827;-76
2022/04/23 00:30:49;;;;;;;331.97;128.00;;;;;;;12.53;72.63;98658.41;342727;28;882;-76
2022/04/23 00:31:00;;;;;;;332.13;128.25;;;;;;;12.52;72.66;98655.88;342563;28;1007;-76
2022/04/23 00:31:11;;;;;;;332.30;128.95;;;;;;;12.50;72.75;98652.50;342769;28;1287;-77
2022/04/23 00:31:21;;;;;;;331.60;129.83;;;;;;;12.48;72.78;98654.38;341295;28;1341;-76
2022/04/23 00:31:32;;;;;;;331.40;129.73;;;;;;;12.44;73.36;98653.72;337207;28;1305;-77
2022/04/23 00:31:42;;;;;;;334.50;132.13;;;;;;;12.42;73.34;98654.78;337782;29;1324;-76
2022/04/23 00:31:53;;;;;;;336.13;129.80;;;;;;;12.41;73.13;98655.72;342448;28;1324;-77
2022/04/23 00:32:03;;;;;;;335.23;130.33;;;;;;;12.42;73.42;98655.59;342509;28;1368;-77
2022/04/23 00:32:14;;;;;;;331.60;128.45;;;;;;;12.42;73.23;98649.53;340943;28;1475;-76
2022/04/23 00:32:25;;;;;;;330.80;129.90;;;;;;;12.41;73.23;98653.09;343894;28;852;-76
2022/04/23 00:32:35;;;;;;;332.90;129.23;;;;;;;12.41;73.46;98653.09;341019;28;1133;-76
2022/04/23 00:32:47;;;;;;;335.57;130.60;;;;;;;12.40;73.40;98646.16;343614;28;1200;-76
2022/04/23 00:33:00;;;;;;;335.58;128.95;;;;;;;12.38;73.84;98648.03;342338;28;1335;-76
2022/04/23 00:33:11;;;;;;;333.05;126.65;;;;;;;12.38;73.64;98654.13;342370;28;1947;-76
2022/04/23 00:33:22;;;;;;;332.08;126.47;;;;;;;12.38;73.72;98648.03;342903;28;1369;-76
2022/04/23 00:33:39;;;;;;;332.30;128.88;;;;;;;12.39;73.67;98652.34;344188;28;790;-76
2022/04/23 00:33:49;;;;;;;331.15;130.07;;;;;;;12.40;73.82;98654.03;339665;28;1532;-77
2022/04/23 00:33:59;;;;;;;331.17;129.73;;;;;;;12.40;73.85;98660.13;339820;29;1244;-77
2022/04/23 00:34:11;;;;;;;333.17;129.57;;;;;;;12.41;74.02;98658.34;340921;28;1181;-77
2022/04/23 00:34:21;;;;;;;333.26;128.76;;;;;;;12.40;73.71;98657.50;342447;28;928;-77
2022/04/23 00:34:31;;;;;;;334.13;129.77;;;;;;;12.40;73.67;98657.50;342393;28;1195;-76
2022/04/23 00:34:42;;;;;;;334.87;130.57;;;;;;;12.37;73.47;98657.69;342347;28;1328;-78
2022/04/23 00:34:52;;;;;;;335.67;130.90;;;;;;;12.33;73.77;98656.19;342085;28;889;-77
2022/04/23 00:35:03;;;;;;;336.23;131.33;;;;;;;12.24;73.96;98654.97;341194;28;1414;-77
2022/04/23 00:35:17;;;;;;;337.10;132.10;;;;;;;12.20;73.87;98658.75;341146;28;868;-77
2022/04/23 00:35:27;;;;;;;333.17;128.45;;;;;;;12.18;74.15;98657.16;340946;28;1165;-77
2022/04/23 00:35:38;;;;;;;330.15;126.20;;;;;;;12.13;74.32;98649.56;343825;28;892;-76
2022/04/23 00:35:49;;;;;;;331.33;126.47;;;;;;;12.13;74.44;98649.56;342373;28;850;-77
2022/04/23 00:35:59;;;;;;;332.55;126.10;;;;;;;12.10;74.65;98655.03;340957;28;865;-78
2022/04/23 00:36:10;;;;;;;333.98;126.90;;;;;;;12.10;74.47;98647.16;343090;28;995;-77
2022/04/23 00:36:23;;;;;;;334.43;128.23;;;;;;;12.14;74.44;98651.25;341378;28;1320;-77
2022/04/23 00:36:33;;;;;;;339.45;132.82;;;;;;;12.13;74.11;98654.81;337424;28;2879;-77
2022/04/23 00:36:43;;;;;;;338.98;133.77;;;;;;;12.09;74.85;98653.34;341409;28;2973;-77
2022/04/23 00:36:54;;;;;;;341.73;133.60;;;;;;;12.10;74.58;98649.78;342388;28;1685;-77
2022/04/23 00:37:05;;;;;;;337.77;130.35;;;;;;;12.09;74.84;98648.09;341037;28;1614;-77
2022/04/23 00:37:15;;;;;;;337.60;129.57;;;;;;;12.09;74.53;98653.34;339873;29;1115;-76
2022/04/23 00:37:25;;;;;;;333.58;127.70;;;;;;;12.07;74.83;98651.75;338468;28;1187;-77
2022/04/23 00:37:36;;;;;;;334.80;127.83;;;;;;;12.01;74.86;98650.34;342220;28;1271;-77
2022/04/23 00:37:46;;;;;;;336.50;129.20;;;;;;;11.98;74.92;98645.31;342314;28;1337;-77
2022/04/23 00:37:57;;;;;;;336.43;129.93;;;;;;;11.95;74.88;98650.72;339764;28;1576;-75
2022/04/23 00:38:08;;;;;;;336.98;129.30;;;;;;;11.87;75.04;98647.75;338596;29;906;-74
2022/04/23 00:38:18;;;;;;;337.10;127.68;;;;;;;11.87;75.17;98647.75;339957;29;1310;-75
2022/04/23 00:38:29;;;;;;;335.60;124.40;;;;;;;11.85;75.15;98649.63;340889;28;1255;-76
2022/04/23 00:38:42;;;;;;;335.73;125.03;;;;;;;11.87;75.54;98648.59;341394;28;1286;-77
2022/04/23 00:38:53;;;;;;;333.52;126.13;;;;;;;11.89;75.52;98648.50;340828;28;1304;-77
2022/04/23 00:39:05;;;;;;;335.27;127.07;;;;;;;11.90;75.52;98647.56;343596;28;1410;-77
2022/04/23 00:39:15;;;;;;;334.15;126.30;;;;;;;11.85;75.89;98644.38;342207;28;1288;-77
2022/04/23 00:39:25;;;;;;;332.50;125.18;;;;;;;11.83;76.06;98648.88;343619;28;1557;-77
2022/04/23 00:39:36;;;;;;;329.63;124.57;;;;;;;11.85;76.15;98649.63;342141;28;900;-77
2022/04/23 00:39:48;;;;;;;331.08;123.72;;;;;;;11.86;76.06;98646.06;340929;28;826;-77
2022/04/23 00:39:58;;;;;;;334.05;125.55;;;;;;;11.82;76.31;98628.81;342457;28;920;-77
2022/04/23 00:40:16;;;;;;;334.67;126.78;;;;;;;11.81;76.44;98642.88;343000;28;1215;-77
2022/04/23 00:40:27;;;;;;;331.63;124.28;;;;;;;11.72;76.65;98641.63;342093;28;971;-77
2022/04/23 00:40:39;;;;;;;331.52;123.53;;;;;;;11.66;76.62;98637.63;342363;28;1305;-77
2022/04/23 00:40:50;;;;;;;330.80;122.85;;;;;;;11.66;77.00;98639.41;341029;28;873;-76
2022/04/23 00:41:00;;;;;;;330.60;121.82;;;;;;;11.64;77.19;98636.88;338043;29;1375;-75
2022/04/23 00:41:45;;;;;;;334.07;123.07;;;;;;;11.65;77.13;98637.72;340395;28;1971;-75
2022/04/23 00:41:45;;;;;;;334.35;128.85;;;;;;;11.77;77.00;98636.13;342016;28;850;-76
2022/04/23 00:41:59;;;;;;;336.23;128.55;;;;;;;11.82;76.84;98634.06;342450;28;825;-76
2022/04/23 00:42:11;;;;;;;337.95;126.68;;;;;;;11.89;76.69;98635.38;340882;28;1243;-76
2022/04/23 00:42:21;;;;;;;338.23;125.13;;;;;;;11.92;76.87;98635.19;340654;28;1486;-77
2022/04/23 00:42:32;;;;;;;331.75;121.55;;;;;;;11.97;76.54;98638.38;340873;28;873;-76
2022/04/23 00:42:51;;;;;;;332.77;123.07;;;;;;;12.02;76.25;98633.69;339214;29;1792;-76
2022/04/23 00:43:05;;;;;;;333.73;126.47;;;;;;;12.06;76.27;98631.72;344462;28;769;-76
2022/04/23 00:43:30;;;;;;;331.98;124.93;;;;;;;12.14;75.82;98640.75;342717;28;1374;-76
2022/04/23 00:43:40;;;;;;;327.27;123.72;;;;;;;12.15;75.80;98639.81;339737;28;1417;-76
2022/04/23 00:43:51;;;;;;;324.45;123.10;;;;;;;12.15;75.94;98634.56;341518;28;1511;-76
2022/04/23 00:44:01;;;;;;;328.13;124.07;;;;;;;12.15;75.79;98637.19;343522;28;1216;-77
2022/04/23 00:44:12;;;;;;;330.92;124.47;;;;;;;12.19;75.73;98637.84;343699;28;844;-77
2022/04/23 00:44:23;;;;;;;332.65;125.00;;;;;;;12.21;75.63;98638.59;341139;28;1167;-75
2022/04/23 00:44:34;;;;;;;332.85;125.10;;;;;;;12.21;75.51;98642.06;343707;28;782;-78
2022/04/23 00:44:44;;;;;;;332.92;125.80;;;;;;;12.22;75.62;98648.16;342368;28;1435;-76
2022/04/23 00:44:54;;;;;;;336.60;125.87;;;;;;;12.24;75.44;98641.88;341986;28;935;-77
2022/04/23 00:45:05;;;;;;;334.47;125.23;;;;;;;12.26;75.28;98640.00;342371;28;1201;-76
2022/04/23 00:45:16;;;;;;;334.27;124.97;;;;;;;12.26;75.27;98644.41;343767;28;1264;-77
2022/04/23 00:45:26;;;;;;;330.98;124.40;;;;;;;12.26;74.99;98640.00;345143;28;841;-76
2022/04/23 00:45:37;;;;;;;332.30;125.83;;;;;;;12.29;74.92;98644.22;342312;28;939;-76
2022/04/23 00:45:47;;;;;;;332.92;126.97;;;;;;;12.27;75.04;98646.94;338827;28;4823;-76
2022/04/23 00:45:58;;;;;;;332.80;127.57;;;;;;;12.30;74.89;98649.34;340127;28;5367;-76
2022/04/23 00:46:08;;;;;;;340.07;129.33;;;;;;;12.29;74.88;98642.41;338425;28;1600;-76
2022/04/23 00:46:19;;;;;;;340.38;130.88;;;;;;;12.30;74.97;98646.72;339692;28;3157;-76
2022/04/23 00:46:31;;;;;;;341.73;131.60;;;;;;;12.33;74.98;98646.53;342577;28;867;-77
2022/04/23 00:46:42;;;;;;;334.60;128.77;;;;;;;12.33;75.08;98651.78;340483;28;1256;-76
2022/04/23 00:46:52;;;;;;;335.30;125.18;;;;;;;12.33;74.91;98648.31;338459;29;786;-76
2022/04/23 00:47:04;;;;;;;337.33;123.97;;;;;;;12.33;74.97;98651.78;341019;28;940;-76
2022/04/23 00:47:14;;;;;;;335.00;122.97;;;;;;;12.33;74.67;98646.53;342164;28;1533;-77
2022/04/23 00:47:25;;;;;;;335.53;123.87;;;;;;;12.32;74.80;98646.63;342289;28;978;-76
2022/04/23 00:47:35;;;;;;;332.55;125.10;;;;;;;12.29;74.67;98650.28;342459;28;1977;-77
2022/04/23 00:47:46;;;;;;;336.30;125.80;;;;;;;12.30;74.72;98651.97;341137;28;984;-76
2022/04/23 00:47:56;;;;;;;339.53;126.23;;;;;;;12.30;74.82;98651.97;341190;28;1173;-76
2022/04/23 00:48:07;;;;;;;340.13;126.07;;;;;;;12.30;75.08;98657.22;344536;28;1713;-76
2022/04/23 00:48:17;;;;;;;337.90;125.10;;;;;;;12.29;74.79;98658.16;342668;28;1768;-76
2022/04/23 00:48:28;;;;;;;340.10;127.20;;;;;;;12.30;74.82;98649.34;339302;29;1497;-76
2022/04/23 00:48:38;;;;;;;337.65;127.10;;;;;;;12.31;74.56;98645.78;343887;28;1498;-76
2022/04/23 00:48:48;;;;;;;337.33;126.43;;;;;;;12.30;74.53;98651.97;343539;28;1346;-76
2022/04/23 00:48:59;;;;;;;335.07;124.60;;;;;;;12.27;74.66;98654.78;339795;29;1207;-76
2022/04/23 00:49:09;;;;;;;335.02;123.38;;;;;;;12.31;74.78;98648.41;340993;28;884;-76
2022/04/23 00:49:20;;;;;;;333.58;122.43;;;;;;;12.30;74.71;98651.97;340904;28;845;-76
2022/04/23 00:49:30;;;;;;;334.37;125.13;;;;;;;12.31;75.02;98652.81;342099;28;1900;-76
2022/04/23 00:49:41;;;;;;;333.75;125.40;;;;;;;12.29;74.98;98646.81;342148;28;1216;-76
2022/04/23 00:49:51;;;;;;;332.00;125.90;;;;;;;12.28;74.99;98647.78;342161;28;1275;-76
2022/04/23 00:50:02;;;;;;;330.77;123.80;;;;;;;12.28;75.13;98651.22;340946;28;1042;-76
2022/04/23 00:50:13;;;;;;;330.45;123.95;;;;;;;12.28;74.97;98653.84;344918;28;1239;-76
2022/04/23 00:50:23;;;;;;;331.73;124.03;;;;;;;12.29;74.85;98652.91;342302;28;1200;-76
2022/04/23 00:50:34;;;;;;;331.30;124.28;;;;;;;12.28;74.72;98653.00;341201;28;893;-76